Terminal Aerodrome Forecast
Issued by NWS

Home | Current Version | Previous Version | Text Only | Print | Product List | Glossary On
Versions: 1 2 3 4 5 6 7 8 9 10 11 12 13 14 15 16 17 18 19 20 21 22 23
000
FTUS44 KTSA 211100
TAFBVO
TAF
KBVO 211120Z 2112/2212 24007KT P6SM BKN120
      TEMPO 2112/2116 -SHRA BKN060
     FM211800 22010KT P6SM SCT070
     FM221000 02006KT P6SM BKN050=

USA.gov is the U.S. government's official web portal to all federal, state and local government web resources and services.